createdAt,value
2022-11-07T00:00:17.418Z,28.88
2022-11-07T00:02:45.526Z,29.15
2022-11-07T00:05:13.507Z,29.15
2022-11-07T00:07:41.480Z,29.77
2022-11-07T00:10:09.927Z,28.83
2022-11-07T00:12:37.862Z,29.55
2022-11-07T00:15:08.329Z,28.95
2022-11-07T00:17:38.160Z,29.05
2022-11-07T00:20:07.266Z,28.95
2022-11-07T00:22:35.325Z,29.95
2022-11-07T00:25:03.286Z,29.73
2022-11-07T00:27:31.242Z,29.88
2022-11-07T00:29:59.451Z,29.80
2022-11-07T00:32:29.078Z,30.25
2022-11-07T00:34:57.118Z,30.35
2022-11-07T00:37:25.155Z,30.05
2022-11-07T00:39:53.477Z,29.65
2022-11-07T00:42:21.530Z,29.83
2022-11-07T00:44:49.478Z,30.88
2022-11-07T00:47:17.490Z,30.10
2022-11-07T00:49:47.221Z,30.33
2022-11-07T00:52:16.402Z,30.20
2022-11-07T00:54:44.762Z,28.92
2022-11-07T00:57:12.938Z,29.83
2022-11-07T00:59:41.098Z,30.15
2022-11-07T01:02:09.310Z,29.80
2022-11-07T01:04:56.303Z,29.63
2022-11-07T01:07:25.816Z,29.05
2022-11-07T01:09:53.920Z,30.23
2022-11-07T01:12:22.006Z,30.48
2022-11-07T01:14:51.791Z,30.13
2022-11-07T01:17:19.828Z,29.92
2022-11-07T01:19:48.006Z,29.58
2022-11-07T01:22:16.091Z,29.80
2022-11-07T01:24:45.551Z,30.05
2022-11-07T01:27:13.625Z,29.98
2022-11-07T01:29:41.891Z,29.73
2022-11-07T01:32:09.841Z,31.20
2022-11-07T01:34:37.903Z,29.08
2022-11-07T01:37:05.998Z,29.33
2022-11-07T01:39:34.275Z,30.63
2022-11-07T01:42:03.729Z,29.90
2022-11-07T01:44:52.565Z,29.70
2022-11-07T01:47:21.735Z,29.33
2022-11-07T01:49:50.075Z,29.65
2022-11-07T01:52:22.145Z,30.08
2022-11-07T01:54:54.463Z,30.83
2022-11-07T01:57:28.294Z,29.83
2022-11-07T02:00:00.590Z,29.73
2022-11-07T02:02:29.305Z,30.15
2022-11-07T02:04:59.746Z,29.42
2022-11-07T02:07:27.981Z,30.40
2022-11-07T02:09:56.327Z,28.88
2022-11-07T02:12:30.388Z,29.40
2022-11-07T02:14:58.497Z,29.48
2022-11-07T02:17:26.509Z,29.73
2022-11-07T02:19:56.764Z,29.98
2022-11-07T02:22:34.621Z,30.67
2022-11-07T02:25:05.979Z,30.85
2022-11-07T02:27:35.965Z,29.20
2022-11-07T02:30:07.679Z,29.55
2022-11-07T02:32:35.917Z,30.08
2022-11-07T02:35:09.002Z,30.35
2022-11-07T02:37:39.564Z,30.00
2022-11-07T02:40:11.376Z,29.58
2022-11-07T02:42:46.256Z,29.25
2022-11-07T02:45:17.391Z,30.00
2022-11-07T02:47:45.880Z,30.27
2022-11-07T02:50:16.886Z,31.38
2022-11-07T02:52:44.944Z,29.92
2022-11-07T02:55:15.598Z,30.38
2022-11-07T02:57:44.285Z,30.25
2022-11-07T03:00:15.286Z,30.63
2022-11-07T03:02:47.185Z,29.92
2022-11-07T03:05:15.903Z,30.75
2022-11-07T03:07:43.926Z,31.10
2022-11-07T03:10:12.317Z,29.63
2022-11-07T03:12:41.799Z,29.08
2022-11-07T03:15:12.975Z,29.25
2022-11-07T03:17:40.939Z,29.13
2022-11-07T03:20:10.995Z,30.88
2022-11-07T03:22:39.047Z,29.88
2022-11-07T03:25:08.119Z,29.98
2022-11-07T03:27:46.239Z,29.88
2022-11-07T03:30:16.268Z,31.13
2022-11-07T03:32:44.334Z,30.77
2022-11-07T03:35:12.956Z,29.85
2022-11-07T03:37:41.065Z,30.77
2022-11-07T03:40:09.905Z,30.95
2022-11-07T03:42:41.144Z,30.75
2022-11-07T03:45:10.990Z,30.05
2022-11-07T03:47:42.155Z,30.40
2022-11-07T03:50:12.700Z,30.27
2022-11-07T03:52:40.645Z,30.60
2022-11-07T03:55:09.948Z,30.42
2022-11-07T03:57:38.065Z,30.15
2022-11-07T04:00:08.242Z,30.98
2022-11-07T04:02:36.617Z,30.45
2022-11-07T04:05:06.848Z,30.88
2022-11-07T04:07:35.165Z,30.13
2022-11-07T04:10:03.717Z,30.48
2022-11-07T04:12:49.140Z,29.83
2022-11-07T04:15:34.824Z,31.15
2022-11-07T04:18:06.144Z,30.35
2022-11-07T04:20:35.542Z,29.90
2022-11-07T04:23:03.499Z,30.38
2022-11-07T04:25:49.175Z,30.08
2022-11-07T04:28:21.675Z,30.35
2022-11-07T04:30:49.766Z,30.02
2022-11-07T04:33:19.421Z,30.42
2022-11-07T04:35:49.059Z,30.77
2022-11-07T04:38:17.138Z,31.27
2022-11-07T04:40:45.151Z,31.60
2022-11-07T04:43:13.419Z,30.88
2022-11-07T04:45:41.908Z,29.27
2022-11-07T04:48:12.835Z,29.40
2022-11-07T04:50:41.349Z,29.98
2022-11-07T04:53:13.183Z,30.98
2022-11-07T04:55:41.299Z,30.65
2022-11-07T04:58:09.616Z,30.75
2022-11-07T05:00:38.220Z,30.45
2022-11-07T05:03:06.246Z,30.27
2022-11-07T05:05:34.783Z,30.48
2022-11-07T05:08:02.758Z,30.58
2022-11-07T05:10:32.503Z,30.42
2022-11-07T05:13:00.697Z,31.13
2022-11-07T05:15:29.162Z,30.85
2022-11-07T05:17:57.124Z,30.67
2022-11-07T05:20:30.743Z,30.48
2022-11-07T05:23:15.383Z,30.60
2022-11-07T05:25:48.469Z,30.80
2022-11-07T05:28:19.111Z,31.02
2022-11-07T05:30:50.361Z,30.92
2022-11-07T05:33:19.593Z,30.33
2022-11-07T05:35:48.168Z,30.67
2022-11-07T05:38:17.333Z,29.10
2022-11-07T05:40:47.983Z,30.02
2022-11-07T05:43:17.073Z,29.63
2022-11-07T05:49:07.955Z,30.00
2022-11-07T05:51:36.503Z,29.40
2022-11-07T05:54:04.838Z,30.65
2022-11-07T05:56:37.442Z,29.38
2022-11-07T05:59:06.354Z,29.73
2022-11-07T06:01:36.073Z,28.95
2022-11-07T06:04:05.302Z,29.75
2022-11-07T06:06:34.684Z,29.20
2022-11-07T06:09:04.568Z,29.77
2022-11-07T06:11:36.950Z,29.10
2022-11-07T06:14:06.964Z,28.92
2022-11-07T06:16:36.107Z,29.67
2022-11-07T06:19:04.352Z,29.45
2022-11-07T06:21:32.788Z,28.70
2022-11-07T06:24:00.833Z,30.00
2022-11-07T06:26:28.896Z,29.33
2022-11-07T06:28:58.518Z,28.80
2022-11-07T06:31:26.760Z,28.42
2022-11-07T06:33:55.578Z,27.77
2022-11-07T06:36:25.844Z,28.50
2022-11-07T06:38:56.927Z,27.33
2022-11-07T06:41:27.070Z,27.13
2022-11-07T06:44:01.636Z,28.15
2022-11-07T06:46:29.938Z,27.85
2022-11-07T06:48:58.117Z,27.95
2022-11-07T06:51:26.395Z,27.13
2022-11-07T06:53:55.000Z,27.10
2022-11-07T06:56:23.253Z,27.63
2022-11-07T06:58:51.861Z,28.00
2022-11-07T07:01:21.818Z,28.17
2022-11-07T07:03:50.739Z,29.23
2022-11-07T07:06:19.091Z,28.02
2022-11-07T07:08:47.731Z,28.55
2022-11-07T07:11:17.142Z,27.98
2022-11-07T07:13:46.424Z,28.13
2022-11-07T07:16:14.447Z,27.98
2022-11-07T07:18:44.120Z,27.60
2022-11-07T07:21:15.186Z,27.25
2022-11-07T07:23:43.507Z,28.33
2022-11-07T07:26:15.081Z,27.50
2022-11-07T07:28:45.481Z,27.98
2022-11-07T07:31:22.928Z,27.67
2022-11-07T07:33:54.862Z,26.48
2022-11-07T07:36:25.202Z,26.85
2022-11-07T07:38:56.736Z,27.38
2022-11-07T07:41:24.683Z,28.70
2022-11-07T07:43:52.788Z,26.67
2022-11-07T07:46:23.934Z,28.25
2022-11-07T07:48:58.163Z,27.88
2022-11-07T07:51:28.716Z,27.10
2022-11-07T07:54:15.473Z,28.27
2022-11-07T07:56:49.707Z,28.98
2022-11-07T07:59:19.124Z,28.33
2022-11-07T08:01:50.923Z,27.00
2022-11-07T08:04:23.229Z,27.20
2022-11-07T08:06:51.190Z,27.92
2022-11-07T08:09:19.303Z,27.67
2022-11-07T08:11:47.236Z,27.35
2022-11-07T08:14:27.030Z,28.02
2022-11-07T08:17:03.192Z,28.15
2022-11-07T08:19:33.670Z,27.77
2022-11-07T08:22:01.941Z,28.45
2022-11-07T08:24:30.087Z,28.88
2022-11-07T08:26:58.085Z,29.08
2022-11-07T08:29:27.232Z,28.25
2022-11-07T08:31:55.320Z,28.83
2022-11-07T08:34:25.167Z,28.77
2022-11-07T08:36:54.836Z,28.17
2022-11-07T08:39:22.932Z,28.02
2022-11-07T08:41:50.953Z,28.25
2022-11-07T08:44:19.059Z,27.35
2022-11-07T08:46:46.965Z,28.75
2022-11-07T08:49:15.137Z,29.13
2022-11-07T08:51:44.231Z,28.00
2022-11-07T08:54:14.126Z,28.10
2022-11-07T08:56:42.286Z,29.08
2022-11-07T08:59:13.156Z,28.98
2022-11-07T09:02:15.192Z,28.55
2022-11-07T09:04:29.191Z,27.95
2022-11-07T09:06:57.714Z,27.50
2022-11-07T09:09:28.520Z,27.90
2022-11-07T09:11:56.513Z,28.65
2022-11-07T09:14:24.784Z,28.65
2022-11-07T09:16:52.759Z,29.58
2022-11-07T09:19:20.682Z,29.52
2022-11-07T09:21:49.189Z,29.73
2022-11-07T09:24:19.103Z,29.60
2022-11-07T09:26:48.692Z,30.40
2022-11-07T09:29:16.723Z,29.85
2022-11-07T09:31:44.618Z,29.73
2022-11-07T09:34:12.683Z,30.30
2022-11-07T09:36:40.663Z,29.50
2022-11-07T09:39:08.773Z,29.42
2022-11-07T09:41:49.736Z,28.83
2022-11-07T09:44:40.588Z,29.13
2022-11-07T09:47:19.494Z,28.50
2022-11-07T09:49:50.842Z,28.50
2022-11-07T09:52:25.254Z,29.65
2022-11-07T09:54:59.414Z,30.13
2022-11-07T09:57:30.723Z,30.02
2022-11-07T10:00:02.758Z,29.63
2022-11-07T10:02:33.844Z,30.10
2022-11-07T10:05:04.873Z,28.98
2022-11-07T10:07:42.872Z,29.70
2022-11-07T10:10:16.656Z,29.15
2022-11-07T10:13:07.714Z,28.70
2022-11-07T10:15:52.965Z,29.25
2022-11-07T10:18:29.879Z,29.52
2022-11-07T10:21:36.365Z,28.83
2022-11-07T10:24:12.659Z,29.77
2022-11-07T10:26:48.465Z,30.60
2022-11-07T10:29:18.558Z,30.35
2022-11-07T10:31:56.636Z,29.83
2022-11-07T10:34:31.287Z,29.95
2022-11-07T10:36:59.182Z,29.80
2022-11-07T10:39:27.149Z,30.40
2022-11-07T10:42:03.316Z,30.25
2022-11-07T10:44:31.974Z,30.40
2022-11-07T10:47:02.197Z,31.52
2022-11-07T10:49:31.784Z,32.22
2022-11-07T10:52:08.646Z,31.58
2022-11-07T10:54:36.863Z,30.73
2022-11-07T10:57:07.226Z,32.30
2022-11-07T10:59:41.272Z,31.98
2022-11-07T11:02:22.134Z,32.25
2022-11-07T11:04:54.007Z,31.55
2022-11-07T11:07:28.030Z,32.78
2022-11-07T11:09:59.686Z,31.25
2022-11-07T11:12:31.333Z,31.20
2022-11-07T11:15:07.533Z,31.02
2022-11-07T11:17:37.105Z,31.48
2022-11-07T11:20:07.388Z,30.92
2022-11-07T11:22:42.213Z,31.08
2022-11-07T11:25:20.021Z,29.27
2022-11-07T11:27:52.541Z,30.10
2022-11-07T11:30:22.683Z,30.42
2022-11-07T11:32:58.461Z,29.40
2022-11-07T11:35:41.352Z,30.63
2022-11-07T11:38:15.877Z,31.00
2022-11-07T11:40:49.382Z,29.98
2022-11-07T11:43:23.087Z,31.50
2022-11-07T11:46:07.912Z,31.15
2022-11-07T11:48:42.665Z,30.35
2022-11-07T11:51:20.591Z,31.13
2022-11-07T11:53:48.938Z,30.83
2022-11-07T11:56:43.536Z,31.55
2022-11-07T11:59:31.072Z,31.75
2022-11-07T12:02:12.438Z,30.60
2022-11-07T12:04:52.351Z,30.85
2022-11-07T12:07:45.641Z,29.95
2022-11-07T12:10:23.032Z,29.88
2022-11-07T12:13:01.174Z,30.25
2022-11-07T12:15:44.158Z,29.52
2022-11-07T12:18:21.188Z,30.52
2022-11-07T12:21:02.345Z,30.25
2022-11-07T12:23:46.912Z,31.52
2022-11-07T12:26:23.190Z,31.45
2022-11-07T12:28:59.045Z,32.33
2022-11-07T12:31:44.756Z,32.13
2022-11-07T12:34:31.459Z,31.83
2022-11-07T12:37:17.308Z,31.48
2022-11-07T12:40:04.710Z,31.67
2022-11-07T12:42:46.426Z,30.65
2022-11-07T12:45:20.239Z,31.65
2022-11-07T12:48:12.807Z,31.48
2022-11-07T12:50:45.551Z,31.65
2022-11-07T12:53:35.183Z,32.40
2022-11-07T12:56:09.317Z,31.00
2022-11-07T12:58:41.539Z,31.30
2022-11-07T13:01:46.463Z,29.55
2022-11-07T13:04:22.277Z,29.83
2022-11-07T13:06:54.582Z,29.80
2022-11-07T13:09:35.170Z,29.80
2022-11-07T13:12:09.972Z,31.60
2022-11-07T13:14:42.325Z,30.67
2022-11-07T13:17:19.921Z,31.10
2022-11-07T13:20:00.046Z,31.02
2022-11-07T13:22:34.983Z,30.92
2022-11-07T13:25:29.601Z,29.50
2022-11-07T13:28:26.161Z,30.08
2022-11-07T13:31:03.694Z,30.13
2022-11-07T13:33:37.243Z,30.25
2022-11-07T13:36:16.099Z,30.45
2022-11-07T13:38:49.883Z,31.55
2022-11-07T13:41:20.906Z,31.30
2022-11-07T13:43:55.823Z,31.88
2022-11-07T13:46:30.641Z,31.90
2022-11-07T13:49:02.116Z,32.58
2022-11-07T13:51:35.157Z,32.00
2022-11-07T13:54:12.537Z,31.73
2022-11-07T13:56:47.304Z,32.67
2022-11-07T13:59:33.833Z,31.83
2022-11-07T14:02:04.675Z,31.75
2022-11-07T14:04:40.503Z,31.77
2022-11-07T14:07:19.437Z,31.45
2022-11-07T14:09:52.692Z,32.10
2022-11-07T14:12:23.184Z,31.80
2022-11-07T14:14:53.091Z,32.30
2022-11-07T14:17:23.754Z,31.17
2022-11-07T14:19:52.861Z,30.08
2022-11-07T14:22:23.702Z,32.97
2022-11-07T14:24:52.805Z,32.83
2022-11-07T14:27:23.117Z,32.15
2022-11-07T14:29:58.255Z,31.42
2022-11-07T14:32:31.858Z,30.20
2022-11-07T14:35:01.616Z,31.02
2022-11-07T14:37:34.753Z,29.95
2022-11-07T14:40:02.709Z,29.50
2022-11-07T14:42:33.228Z,30.10
2022-11-07T14:45:01.382Z,30.38
2022-11-07T14:47:36.271Z,29.73
2022-11-07T14:50:20.786Z,30.33
2022-11-07T14:53:00.407Z,28.95
2022-11-07T14:55:34.841Z,28.95
2022-11-07T14:58:06.758Z,29.35
2022-11-07T15:00:35.516Z,28.73
2022-11-07T15:03:03.491Z,29.10
2022-11-07T15:05:43.665Z,29.00
2022-11-07T15:08:26.683Z,28.85
2022-11-07T15:11:03.191Z,28.50
2022-11-07T15:13:39.158Z,28.73
2022-11-07T15:16:16.172Z,28.27
2022-11-07T16:24:21.944Z,26.75
2022-11-07T16:26:52.437Z,26.38
2022-11-07T16:29:20.350Z,26.10
2022-11-07T16:31:48.251Z,26.08
2022-11-07T16:34:16.615Z,25.77
2022-11-07T16:36:44.534Z,25.50
2022-11-07T16:39:20.505Z,25.73
2022-11-07T16:41:51.405Z,25.02
2022-11-07T16:44:26.001Z,25.60
2022-11-07T16:46:58.704Z,25.25
2022-11-07T16:49:33.878Z,26.10
2022-11-07T16:52:02.296Z,26.05
2022-11-07T16:54:30.238Z,25.15
2022-11-07T16:56:59.618Z,26.63
2022-11-07T16:59:28.736Z,26.33
2022-11-07T17:01:57.771Z,27.27
2022-11-07T17:04:25.947Z,28.15
2022-11-07T17:06:53.875Z,26.80
2022-11-07T17:09:24.683Z,27.40
2022-11-07T17:11:52.584Z,27.80
2022-11-07T17:14:21.877Z,28.35
2022-11-07T17:16:50.101Z,27.52
2022-11-07T17:19:18.169Z,28.02
2022-11-07T17:21:49.380Z,27.70
2022-11-07T17:24:17.779Z,27.98
2022-11-07T17:26:47.010Z,28.20
2022-11-07T17:29:15.262Z,27.33
2022-11-07T17:31:47.485Z,27.67
2022-11-07T17:34:15.421Z,28.33
2022-11-07T17:36:47.504Z,28.05
2022-11-07T17:39:19.227Z,27.10
2022-11-07T17:41:48.805Z,28.15
2022-11-07T17:44:17.756Z,27.88
2022-11-07T17:46:49.208Z,27.95
2022-11-07T17:49:18.949Z,27.58
2022-11-07T17:51:49.476Z,27.80
2022-11-07T17:54:17.828Z,28.45
2022-11-07T17:56:49.330Z,27.45
2022-11-07T17:59:19.531Z,27.67
2022-11-07T18:01:49.458Z,28.75
2022-11-07T18:04:17.649Z,28.88
2022-11-07T18:06:45.597Z,29.15
2022-11-07T18:09:16.607Z,29.30
2022-11-07T18:11:45.384Z,28.73
2022-11-07T18:14:14.563Z,28.85
2022-11-07T18:16:44.727Z,29.17
2022-11-07T18:19:18.635Z,28.92
2022-11-07T18:21:49.888Z,29.08
2022-11-07T18:24:17.806Z,29.00
2022-11-07T18:26:45.845Z,28.63
2022-11-07T18:29:15.159Z,28.85
2022-11-07T18:31:43.355Z,28.73
2022-11-07T18:34:12.818Z,28.67
2022-11-07T18:36:44.227Z,28.67
2022-11-07T18:39:17.331Z,27.85
2022-11-07T18:41:46.074Z,27.50
2022-11-07T18:44:14.587Z,27.80
2022-11-07T18:46:43.073Z,27.67
2022-11-07T18:49:12.160Z,28.17
2022-11-07T18:51:46.749Z,28.02
2022-11-07T18:54:15.187Z,27.90
2022-11-07T18:56:43.921Z,28.83
2022-11-07T19:26:14.076Z,28.23
2022-11-07T19:28:42.476Z,27.98
2022-11-07T19:31:12.987Z,29.13
2022-11-07T19:33:41.785Z,29.25
2022-11-07T19:36:14.357Z,28.73
2022-11-07T19:38:42.507Z,28.75
2022-11-07T19:41:12.358Z,29.95
2022-11-07T19:43:42.857Z,28.92
2022-11-07T19:46:15.103Z,28.58
2022-11-07T19:48:44.325Z,29.23
2022-11-07T19:51:21.283Z,29.63
2022-11-07T19:53:53.964Z,29.02
2022-11-07T19:56:27.959Z,28.88
2022-11-07T19:58:56.595Z,28.73
2022-11-07T20:01:27.804Z,28.90
2022-11-07T20:03:57.713Z,28.90
2022-11-07T20:06:30.835Z,28.27
2022-11-07T20:09:01.714Z,29.23
2022-11-07T20:22:13.999Z,28.60
2022-11-07T20:24:41.960Z,29.63
2022-11-07T20:27:10.232Z,28.58
2022-11-07T20:29:42.158Z,28.95
2022-11-07T20:32:12.006Z,28.27
2022-11-07T20:34:40.091Z,28.20
2022-11-07T20:37:08.625Z,27.20
2022-11-07T20:39:42.429Z,28.75
2022-11-07T20:42:10.787Z,28.77
2022-11-07T20:44:38.865Z,27.80
2022-11-07T20:47:07.218Z,27.75
2022-11-07T20:49:38.979Z,28.90
2022-11-07T20:52:08.132Z,28.95
2022-11-07T20:54:37.873Z,28.77
2022-11-07T20:57:06.142Z,29.13
2022-11-07T20:59:35.183Z,28.15
2022-11-07T21:02:06.191Z,28.25
2022-11-07T21:04:49.910Z,28.30
2022-11-07T21:07:23.755Z,27.80
2022-11-07T21:09:53.035Z,29.25
2022-11-07T21:12:21.187Z,28.38
2022-11-07T21:14:49.089Z,29.85
2022-11-07T21:17:17.244Z,29.02
2022-11-07T21:19:45.271Z,30.23
2022-11-07T21:22:13.252Z,28.98
2022-11-07T21:24:41.375Z,29.38
2022-11-07T21:27:10.702Z,28.52
2022-11-07T21:29:38.860Z,28.55
2022-11-07T21:32:09.699Z,29.85
2022-11-07T21:34:38.131Z,29.77
2022-11-07T21:37:06.300Z,30.48
2022-11-07T21:39:34.532Z,30.23
2022-11-07T21:42:02.446Z,30.10
2022-11-07T21:44:31.783Z,30.27
2022-11-07T21:46:59.776Z,30.85
2022-11-07T21:49:27.631Z,30.92
2022-11-07T21:51:56.976Z,31.27
2022-11-07T21:54:24.991Z,31.67
2022-11-07T21:56:52.933Z,31.00
2022-11-07T21:59:20.961Z,31.33
2022-11-07T22:01:50.842Z,31.08
2022-11-07T22:04:19.091Z,32.08
2022-11-07T22:06:47.573Z,31.48
2022-11-07T22:09:17.323Z,31.58
2022-11-07T22:11:45.436Z,30.73
2022-11-07T22:14:15.752Z,31.00
2022-11-07T22:16:44.004Z,30.77
2022-11-07T22:19:14.010Z,31.13
2022-11-07T22:21:44.538Z,30.75
2022-11-07T22:24:12.730Z,30.80
2022-11-07T22:26:41.022Z,29.70
2022-11-07T22:29:09.216Z,30.70
2022-11-07T22:31:40.392Z,30.85
2022-11-07T22:34:08.511Z,30.75
2022-11-07T22:36:38.244Z,30.98
2022-11-07T22:39:06.498Z,29.50
2022-11-07T22:41:37.746Z,31.23
2022-11-07T22:44:06.066Z,31.25
2022-11-07T22:46:34.703Z,30.17
2022-11-07T22:49:02.825Z,31.08
2022-11-07T22:51:32.600Z,31.48
2022-11-07T22:54:03.758Z,32.03
2022-11-07T22:56:32.536Z,29.17
2022-11-07T22:59:00.931Z,31.60
2022-11-07T23:01:31.710Z,31.00
2022-11-07T23:04:00.516Z,32.70
2022-11-07T23:06:30.096Z,32.55
2022-11-07T23:08:59.539Z,31.27
2022-11-07T23:11:48.660Z,32.45
2022-11-07T23:14:19.069Z,31.73
2022-11-07T23:16:49.397Z,32.40
2022-11-07T23:19:23.285Z,30.95
2022-11-07T23:21:52.484Z,31.42
2022-11-07T23:24:21.393Z,32.63
2022-11-07T23:26:51.067Z,32.75
2022-11-07T23:29:21.099Z,32.03
2022-11-07T23:31:50.633Z,32.33
2022-11-07T23:34:20.305Z,32.22
2022-11-07T23:36:53.176Z,32.33
2022-11-07T23:39:23.213Z,31.80
2022-11-07T23:41:55.277Z,32.63
2022-11-07T23:44:23.762Z,33.67
2022-11-07T23:47:09.075Z,32.72
2022-11-07T23:49:54.346Z,31.95
2022-11-07T23:52:22.705Z,33.05
2022-11-07T23:55:08.005Z,33.63
2022-11-07T23:57:58.206Z,32.55
